This is the latest recevied weather packets stored in our database for station/object DD5ZT-13. If no packets are shown the sender has not sent any weather packets the latest 10 day(s).
| Time | Temp. | Humidity | Pressure | Rain* | Wind** | Luminosity | Snow |
|---|---|---|---|---|---|---|---|
| 1777814497 | 23.89° C | 50% | 1011.5 hPa | 0 mm | - | - | - |
| 1777813872 | 23.89° C | 50% | 1011.6 hPa | 0 mm | - | - | - |
| 1777813247 | 24.44° C | 49% | 1011.6 hPa | 0 mm | - | - | - |
| 1777812768 | 24.44° C | 49% | 1011.8 hPa | 0 mm | - | - | - |
| 1777811478 | 25° C | 47% | 1011.9 hPa | 0 mm | - | - | - |
| 1777811371 | 25° C | 47% | 1011.9 hPa | 0 mm | - | - | - |
| 1777810964 | 25.56° C | 45% | 1012.1 hPa | 0 mm | - | - | - |
| 1777809495 | 30° C | 35% | 1012.1 hPa | 0 mm | - | - | - |
| 1777808264 | 31.67° C | 32% | 1012.3 hPa | 0 mm | - | - | - |
| 1777808244 | 31.67° C | 32% | 1012.3 hPa | 0 mm | - | - | - |
| 1777807619 | 32.22° C | 31% | 1012.4 hPa | 0 mm | - | - | - |
| 1777806994 | 31.11° C | 34% | 1012.4 hPa | 0 mm | - | - | - |
| 1777806464 | 26.67° C | 42% | 1012.5 hPa | 0 mm | - | - | - |
| 1777806368 | 26.67° C | 42% | 1012.5 hPa | 0 mm | - | - | - |
| 1777804656 | 26.11° C | 49% | 1012.6 hPa | 0 mm | - | - | - |
| 1777803472 | 28.33° C | 39% | 1012.7 hPa | 0 mm | - | - | - |
| 1777802846 | 27.22° C | 42% | 1012.9 hPa | 0 mm | - | - | - |
| 1777802453 | 26.67° C | 45% | 1013.1 hPa | 0 mm | - | - | - |
| 1777802221 | 26.67° C | 45% | 1013.1 hPa | 0 mm | - | - | - |
| 1777801596 | 26.11° C | 46% | 1013.2 hPa | 0 mm | - | - | - |
| 1777801056 | 25.56° C | 50% | 1013.3 hPa | 0 mm | - | - | - |
| 1777800971 | 25.56° C | 50% | 1013.3 hPa | 0 mm | - | - | - |
| 1777800394 | 24.44° C | 55% | 1013.4 hPa | 0 mm | - | - | - |
| 1777800345 | 24.44° C | 55% | 1013.4 hPa | 0 mm | - | - | - |
| 1777799741 | 24.44° C | 54% | 1013.4 hPa | 0 mm | - | - | - |
* Rain latest hour (hover to see other rain measurements)
** Current wind speed in m/s (hover to see current wind gust speed)